sensor_id;sensor_type;location;lat;lon;timestamp;pressure;altitude;pressure_sealevel;temperature;humidity
14767;BME280;7475;53.558;9.970;2022-11-30T00:01:49;102290.31;;;6.37;100.00
14767;BME280;7475;53.558;9.970;2022-11-30T00:04:14;102282.44;;;6.35;100.00
14767;BME280;7475;53.558;9.970;2022-11-30T00:06:42;102291.28;;;6.34;100.00
14767;BME280;7475;53.558;9.970;2022-11-30T00:09:09;102282.59;;;6.29;100.00
14767;BME280;7475;53.558;9.970;2022-11-30T00:11:35;102282.59;;;6.29;100.00
14767;BME280;7475;53.558;9.970;2022-11-30T00:14:00;102282.50;;;6.32;100.00
14767;BME280;7475;53.558;9.970;2022-11-30T00:16:25;102278.13;;;6.33;100.00
14767;BME280;7475;53.558;9.970;2022-11-30T00:18:51;102286.00;;;6.34;100.00
14767;BME280;7475;53.558;9.970;2022-11-30T00:21:17;102279.88;;;6.32;100.00
14767;BME280;7475;53.558;9.970;2022-11-30T00:23:44;102286.00;;;6.34;100.00
14767;BME280;7475;53.558;9.970;2022-11-30T00:26:12;102284.19;;;6.36;100.00
14767;BME280;7475;53.558;9.970;2022-11-30T00:28:38;102294.75;;;6.36;100.00
14767;BME280;7475;53.558;9.970;2022-11-30T00:31:06;102296.47;;;6.37;100.00
14767;BME280;7475;53.558;9.970;2022-11-30T00:33:34;102304.41;;;6.37;100.00
14767;BME280;7475;53.558;9.970;2022-11-30T00:36:25;102311.47;;;6.35;100.00
14767;BME280;7475;53.558;9.970;2022-11-30T00:38:51;102307.16;;;6.31;100.00
14767;BME280;7475;53.558;9.970;2022-11-30T00:41:18;102314.16;;;6.32;100.00
14767;BME280;7475;53.558;9.970;2022-11-30T00:43:43;102314.16;;;6.32;100.00
14767;BME280;7475;53.558;9.970;2022-11-30T00:46:09;102312.44;;;6.31;100.00
14767;BME280;7475;53.558;9.970;2022-11-30T00:48:36;102317.72;;;6.31;100.00
14767;BME280;7475;53.558;9.970;2022-11-30T00:51:02;102312.44;;;6.31;100.00
14767;BME280;7475;53.558;9.970;2022-11-30T00:53:28;102314.16;;;6.32;100.00
14767;BME280;7475;53.558;9.970;2022-11-30T00:55:53;102314.25;;;6.29;100.00
14767;BME280;7475;53.558;9.970;2022-11-30T00:58:19;102319.66;;;6.23;100.00
14767;BME280;7475;53.558;9.970;2022-11-30T01:00:44;102325.84;;;6.22;100.00
14767;BME280;7475;53.558;9.970;2022-11-30T01:03:10;102333.75;;;6.22;100.00
14767;BME280;7475;53.558;9.970;2022-11-30T01:05:36;102328.53;;;6.19;100.00
14767;BME280;7475;53.558;9.970;2022-11-30T01:08:03;102333.81;;;6.19;100.00
14767;BME280;7475;53.558;9.970;2022-11-30T01:10:29;102325.88;;;6.20;100.00
14767;BME280;7475;53.558;9.970;2022-11-30T01:12:54;102340.72;;;6.26;100.00
14767;BME280;7475;53.558;9.970;2022-11-30T01:15:20;102338.91;;;6.28;100.00
14767;BME280;7475;53.558;9.970;2022-11-30T01:17:45;102331.75;;;6.33;100.00
14767;BME280;7475;53.558;9.970;2022-11-30T01:20:11;102339.66;;;6.33;100.00
14767;BME280;7475;53.558;9.970;2022-11-30T01:22:36;102331.75;;;6.33;100.00
14767;BME280;7475;53.558;9.970;2022-11-30T01:25:02;102326.47;;;6.33;100.00
14767;BME280;7475;53.558;9.970;2022-11-30T01:27:27;102326.41;;;6.36;100.00
14767;BME280;7475;53.558;9.970;2022-11-30T01:29:53;102325.59;;;6.34;100.00
14767;BME280;7475;53.558;9.970;2022-11-30T01:32:18;102330.09;;;6.29;100.00
14767;BME280;7475;53.558;9.970;2022-11-30T01:34:43;102335.38;;;6.29;100.00
14767;BME280;7475;53.558;9.970;2022-11-30T01:37:09;102326.59;;;6.27;100.00
14767;BME280;7475;53.558;9.970;2022-11-30T01:39:34;102323.06;;;6.28;100.00
14767;BME280;7475;53.558;9.970;2022-11-30T01:41:59;102319.53;;;6.29;100.00
14767;BME280;7475;53.558;9.970;2022-11-30T01:47:04;102324.81;;;6.29;100.00
14767;BME280;7475;53.558;9.970;2022-11-30T01:49:46;102317.84;;;6.25;100.00
14767;BME280;7475;53.558;9.970;2022-11-30T01:52:22;102321.38;;;6.24;100.00
14767;BME280;7475;53.558;9.970;2022-11-30T01:57:24;102315.28;;;6.22;100.00
14767;BME280;7475;53.558;9.970;2022-11-30T01:59:53;102319.66;;;6.23;100.00
14767;BME280;7475;53.558;9.970;2022-11-30T02:05:05;102323.34;;;6.14;100.00
14767;BME280;7475;53.558;9.970;2022-11-30T02:07:31;102324.38;;;6.09;100.00
14767;BME280;7475;53.558;9.970;2022-11-30T02:09:56;102330.47;;;6.11;100.00
14767;BME280;7475;53.558;9.970;2022-11-30T02:12:36;102318.09;;;6.13;100.00
14767;BME280;7475;53.558;9.970;2022-11-30T02:15:08;102327.75;;;6.15;100.00
14767;BME280;7475;53.558;9.970;2022-11-30T02:29:15;102327.72;;;6.17;100.00
14767;BME280;7475;53.558;9.970;2022-11-30T02:31:54;102328.53;;;6.19;100.00
14767;BME280;7475;53.558;9.970;2022-11-30T02:34:24;102321.44;;;6.21;100.00
14767;BME280;7475;53.558;9.970;2022-11-30T02:36:53;102335.56;;;6.20;100.00
14767;BME280;7475;53.558;9.970;2022-11-30T02:39:20;102333.81;;;6.19;100.00
14767;BME280;7475;53.558;9.970;2022-11-30T02:41:46;102332.09;;;6.18;100.00
14767;BME280;7475;53.558;9.970;2022-11-30T02:44:12;102328.53;;;6.19;100.00
14767;BME280;7475;53.558;9.970;2022-11-30T02:49:21;102324.94;;;6.23;100.00
14767;BME280;7475;53.558;9.970;2022-11-30T02:51:49;102335.56;;;6.20;100.00
14767;BME280;7475;53.558;9.970;2022-11-30T02:54:17;102341.66;;;6.22;100.00
14767;BME280;7475;53.558;9.970;2022-11-30T02:56:42;102339.03;;;6.22;100.00
14767;BME280;7475;53.558;9.970;2022-11-30T02:59:08;102342.53;;;6.23;100.00
14767;BME280;7475;53.558;9.970;2022-11-30T03:01:33;102338.97;;;6.25;100.00
14767;BME280;7475;53.558;9.970;2022-11-30T03:03:58;102340.78;;;6.23;100.00
14767;BME280;7475;53.558;9.970;2022-11-30T03:06:24;102339.09;;;6.19;100.00
14767;BME280;7475;53.558;9.970;2022-11-30T03:08:49;102342.59;;;6.19;100.00
14767;BME280;7475;53.558;9.970;2022-11-30T03:11:14;102344.31;;;6.22;100.00
14767;BME280;7475;53.558;9.970;2022-11-30T03:13:40;102349.59;;;6.22;100.00
14767;BME280;7475;53.558;9.970;2022-11-30T03:16:09;102353.09;;;6.21;100.00
14767;BME280;7475;53.558;9.970;2022-11-30T03:18:35;102348.75;;;6.20;100.00
14767;BME280;7475;53.558;9.970;2022-11-30T03:21:04;102355.72;;;6.23;100.00
14767;BME280;7475;53.558;9.970;2022-11-30T03:23:30;102354.81;;;6.25;100.00
14767;BME280;7475;53.558;9.970;2022-11-30T03:25:57;102360.13;;;6.22;100.00
14767;BME280;7475;53.558;9.970;2022-11-30T03:28:23;102352.38;;;6.14;100.00
14767;BME280;7475;53.558;9.970;2022-11-30T03:30:48;102361.25;;;6.12;100.00
14767;BME280;7475;53.558;9.970;2022-11-30T03:33:14;102354.19;;;6.12;100.00
14767;BME280;7475;53.558;9.970;2022-11-30T03:35:39;102362.13;;;6.11;100.00
14767;BME280;7475;53.558;9.970;2022-11-30T03:38:04;102355.16;;;6.07;100.00
14767;BME280;7475;53.558;9.970;2022-11-30T03:40:30;102360.53;;;6.04;100.00
14767;BME280;7475;53.558;9.970;2022-11-30T03:42:55;102362.25;;;6.05;100.00
14767;BME280;7475;53.558;9.970;2022-11-30T03:45:20;102360.44;;;6.07;100.00
14767;BME280;7475;53.558;9.970;2022-11-30T03:47:46;102362.19;;;6.08;100.00
14767;BME280;7475;53.558;9.970;2022-11-30T03:50:11;102360.44;;;6.07;100.00
14767;BME280;7475;53.558;9.970;2022-11-30T03:52:36;102356.91;;;6.08;100.00
14767;BME280;7475;53.558;9.970;2022-11-30T03:55:02;102364.78;;;6.11;100.00
14767;BME280;7475;53.558;9.970;2022-11-30T03:57:27;102367.47;;;6.08;100.00
14767;BME280;7475;53.558;9.970;2022-11-30T03:59:52;102372.75;;;6.08;100.00
14767;BME280;7475;53.558;9.970;2022-11-30T04:02:18;102374.44;;;6.12;100.00
14767;BME280;7475;53.558;9.970;2022-11-30T04:04:43;102374.44;;;6.12;100.00
14767;BME280;7475;53.558;9.970;2022-11-30T04:07:08;102373.53;;;6.11;100.00
14767;BME280;7475;53.558;9.970;2022-11-30T04:09:33;102375.28;;;6.12;100.00
14767;BME280;7475;53.558;9.970;2022-11-30T04:11:59;102370.84;;;6.14;100.00
14767;BME280;7475;53.558;9.970;2022-11-30T04:14:24;102367.28;;;6.17;100.00
14767;BME280;7475;53.558;9.970;2022-11-30T04:16:49;102367.22;;;6.20;100.00
14767;BME280;7475;53.558;9.970;2022-11-30T04:19:15;102372.50;;;6.20;100.00
14767;BME280;7475;53.558;9.970;2022-11-30T04:21:40;102365.47;;;6.19;100.00
14767;BME280;7475;53.558;9.970;2022-11-30T04:24:06;102381.31;;;6.19;100.00
14767;BME280;7475;53.558;9.970;2022-11-30T04:26:31;102382.16;;;6.19;100.00
14767;BME280;7475;53.558;9.970;2022-11-30T04:28:57;102384.78;;;6.21;100.00
14767;BME280;7475;53.558;9.970;2022-11-30T04:31:22;102383.00;;;6.23;100.00
14767;BME280;7475;53.558;9.970;2022-11-30T04:33:52;102383.81;;;6.25;100.00
14767;BME280;7475;53.558;9.970;2022-11-30T04:36:18;102381.13;;;6.28;100.00
14767;BME280;7475;53.558;9.970;2022-11-30T04:38:45;102372.38;;;6.26;100.00
14767;BME280;7475;53.558;9.970;2022-11-30T04:41:11;102375.91;;;6.25;100.00
14767;BME280;7475;53.558;9.970;2022-11-30T04:43:36;102380.28;;;6.26;100.00
14767;BME280;7475;53.558;9.970;2022-11-30T04:46:02;102379.44;;;6.24;100.00
14767;BME280;7475;53.558;9.970;2022-11-30T04:48:28;102379.44;;;6.24;100.00
14767;BME280;7475;53.558;9.970;2022-11-30T04:51:02;102369.78;;;6.25;100.00
14767;BME280;7475;53.558;9.970;2022-11-30T04:53:28;102384.72;;;6.24;100.00
14767;BME280;7475;53.558;9.970;2022-11-30T04:55:53;102383.81;;;6.25;100.00
14767;BME280;7475;53.558;9.970;2022-11-30T04:58:18;102387.41;;;6.21;100.00
14767;BME280;7475;53.558;9.970;2022-11-30T05:00:43;102383.06;;;6.20;100.00
14767;BME280;7475;53.558;9.970;2022-11-30T05:03:09;102378.66;;;6.19;100.00
14767;BME280;7475;53.558;9.970;2022-11-30T05:05:34;102383.91;;;6.20;100.00
14767;BME280;7475;53.558;9.970;2022-11-30T05:07:59;102387.41;;;6.21;100.00
14767;BME280;7475;53.558;9.970;2022-11-30T05:10:26;102390.97;;;6.20;100.00
14767;BME280;7475;53.558;9.970;2022-11-30T05:12:52;102390.06;;;6.21;100.00
14767;BME280;7475;53.558;9.970;2022-11-30T05:15:18;102389.13;;;6.24;100.00
14767;BME280;7475;53.558;9.970;2022-11-30T05:17:43;102404.09;;;6.23;100.00
14767;BME280;7475;53.558;9.970;2022-11-30T05:20:09;102405.88;;;6.21;100.00
14767;BME280;7475;53.558;9.970;2022-11-30T05:22:34;102405.03;;;6.20;100.00
14767;BME280;7475;53.558;9.970;2022-11-30T05:25:00;102411.16;;;6.21;100.00
14767;BME280;7475;53.558;9.970;2022-11-30T05:27:26;102416.44;;;6.21;100.00
14767;BME280;7475;53.558;9.970;2022-11-30T05:29:51;102423.47;;;6.22;100.00
14767;BME280;7475;53.558;9.970;2022-11-30T05:32:17;102419.03;;;6.23;100.00
14767;BME280;7475;53.558;9.970;2022-11-30T05:34:42;102425.28;;;6.20;100.00
14767;BME280;7475;53.558;9.970;2022-11-30T05:37:08;102419.16;;;6.18;100.00
14767;BME280;7475;53.558;9.970;2022-11-30T05:39:33;102422.66;;;6.18;100.00
14767;BME280;7475;53.558;9.970;2022-11-30T05:41:58;102420.78;;;6.24;100.00
14767;BME280;7475;53.558;9.970;2022-11-30T05:44:23;102418.94;;;6.27;100.00
14767;BME280;7475;53.558;9.970;2022-11-30T05:46:49;102419.81;;;6.29;100.00
14767;BME280;7475;53.558;9.970;2022-11-30T05:49:14;102418.88;;;6.32;100.00
14767;BME280;7475;53.558;9.970;2022-11-30T05:51:39;102422.44;;;6.31;100.00
14767;BME280;7475;53.558;9.970;2022-11-30T05:54:05;102418.94;;;6.27;100.00
14767;BME280;7475;53.558;9.970;2022-11-30T05:56:30;102418.13;;;6.25;100.00
14767;BME280;7475;53.558;9.970;2022-11-30T05:58:55;102426.97;;;6.23;100.00
14767;BME280;7475;53.558;9.970;2022-11-30T06:01:23;102428.69;;;6.25;100.00
14767;BME280;7475;53.558;9.970;2022-11-30T06:03:49;102426.88;;;6.27;100.00
14767;BME280;7475;53.558;9.970;2022-11-30T06:06:15;102435.66;;;6.29;100.00
14767;BME280;7475;53.558;9.970;2022-11-30T06:08:41;102437.31;;;6.33;100.00
14767;BME280;7475;53.558;9.970;2022-11-30T06:11:06;102436.44;;;6.33;100.00
14767;BME280;7475;53.558;9.970;2022-11-30T06:13:32;102441.75;;;6.31;100.00
14767;BME280;7475;53.558;9.970;2022-11-30T06:15:59;102434.75;;;6.29;100.00
14767;BME280;7475;53.558;9.970;2022-11-30T06:18:24;102442.66;;;6.30;100.00
14767;BME280;7475;53.558;9.970;2022-11-30T06:20:50;102442.59;;;6.33;100.00
14767;BME280;7475;53.558;9.970;2022-11-30T06:23:15;102441.75;;;6.31;100.00
14767;BME280;7475;53.558;9.970;2022-11-30T06:25:40;102441.00;;;6.26;100.00
14767;BME280;7475;53.558;9.970;2022-11-30T06:28:09;102446.25;;;6.26;100.00
14767;BME280;7475;53.558;9.970;2022-11-30T06:30:35;102443.59;;;6.28;100.00
14767;BME280;7475;53.558;9.970;2022-11-30T06:33:00;102450.56;;;6.30;100.00
14767;BME280;7475;53.558;9.970;2022-11-30T06:35:26;102447.88;;;6.33;100.00
14767;BME280;7475;53.558;9.970;2022-11-30T06:37:51;102453.16;;;6.33;100.00
14767;BME280;7475;53.558;9.970;2022-11-30T06:40:16;102449.63;;;6.34;100.00
14767;BME280;7475;53.558;9.970;2022-11-30T06:42:44;102460.19;;;6.34;100.00
14767;BME280;7475;53.558;9.970;2022-11-30T06:45:09;102454.91;;;6.34;100.00
14767;BME280;7475;53.558;9.970;2022-11-30T06:47:35;102453.16;;;6.33;100.00
14767;BME280;7475;53.558;9.970;2022-11-30T06:50:00;102460.19;;;6.34;100.00
14767;BME280;7475;53.558;9.970;2022-11-30T06:52:25;102454.91;;;6.34;100.00
14767;BME280;7475;53.558;9.970;2022-11-30T06:54:51;102453.16;;;6.33;100.00
14767;BME280;7475;53.558;9.970;2022-11-30T06:57:16;102458.41;;;6.33;100.00
14767;BME280;7475;53.558;9.970;2022-11-30T06:59:41;102463.69;;;6.33;100.00
14767;BME280;7475;53.558;9.970;2022-11-30T07:02:12;102458.41;;;6.33;100.00
14767;BME280;7475;53.558;9.970;2022-11-30T07:04:38;102467.22;;;6.32;100.00
14767;BME280;7475;53.558;9.970;2022-11-30T07:07:04;102465.50;;;6.31;100.00
14767;BME280;7475;53.558;9.970;2022-11-30T07:09:29;102462.81;;;6.34;100.00
14767;BME280;7475;53.558;9.970;2022-11-30T07:11:56;102467.16;;;6.35;100.00
14767;BME280;7475;53.558;9.970;2022-11-30T07:14:22;102468.91;;;6.36;100.00
14767;BME280;7475;53.558;9.970;2022-11-30T07:16:47;102465.38;;;6.37;100.00
14767;BME280;7475;53.558;9.970;2022-11-30T07:19:12;102477.66;;;6.38;100.00
14767;BME280;7475;53.558;9.970;2022-11-30T07:21:37;102481.22;;;6.37;100.00
14767;BME280;7475;53.558;9.970;2022-11-30T07:24:03;102474.13;;;6.40;100.00
14767;BME280;7475;53.558;9.970;2022-11-30T07:26:47;102476.81;;;6.38;100.00
14767;BME280;7475;53.558;9.970;2022-11-30T07:29:12;102468.91;;;6.36;100.00
14767;BME280;7475;53.558;9.970;2022-11-30T07:31:38;102476.00;;;6.34;100.00
14767;BME280;7475;53.558;9.970;2022-11-30T07:34:06;102476.00;;;6.34;100.00
14767;BME280;7475;53.558;9.970;2022-11-30T07:36:33;102476.06;;;6.31;100.00
14767;BME280;7475;53.558;9.970;2022-11-30T07:38:58;102483.06;;;6.32;100.00
14767;BME280;7475;53.558;9.970;2022-11-30T07:41:24;102486.56;;;6.34;100.00
14767;BME280;7475;53.558;9.970;2022-11-30T07:43:49;102487.38;;;6.38;100.00
14767;BME280;7475;53.558;9.970;2022-11-30T07:46:15;102491.72;;;6.41;100.00
14767;BME280;7475;53.558;9.970;2022-11-30T07:48:42;102489.09;;;6.41;100.00
14767;BME280;7475;53.558;9.970;2022-11-30T07:51:12;102481.22;;;6.37;100.00
14767;BME280;7475;53.558;9.970;2022-11-30T07:53:38;102483.00;;;6.35;100.00
14767;BME280;7475;53.558;9.970;2022-11-30T07:56:05;102491.75;;;6.39;100.00
14767;BME280;7475;53.558;9.970;2022-11-30T07:58:31;102494.31;;;6.44;100.00
14767;BME280;7475;53.558;9.970;2022-11-30T08:01:07;102503.13;;;6.43;100.00
14767;BME280;7475;53.558;9.970;2022-11-30T08:03:34;102498.78;;;6.38;100.00
14767;BME280;7475;53.558;9.970;2022-11-30T08:06:07;102504.06;;;6.38;100.00
14767;BME280;7475;53.558;9.970;2022-11-30T08:08:35;102493.50;;;6.38;100.00
14767;BME280;7475;53.558;9.970;2022-11-30T08:11:02;102503.19;;;6.38;100.00
14767;BME280;7475;53.558;9.970;2022-11-30T08:13:28;102500.53;;;6.40;100.00
14767;BME280;7475;53.558;9.970;2022-11-30T08:15:54;102504.00;;;6.42;100.00
14767;BME280;7475;53.558;9.970;2022-11-30T08:18:20;102496.94;;;6.44;100.00
14767;BME280;7475;53.558;9.970;2022-11-30T08:20:45;102502.13;;;6.47;100.00
14767;BME280;7475;53.558;9.970;2022-11-30T08:23:11;102510.00;;;6.50;100.00
14767;BME280;7475;53.558;9.970;2022-11-30T08:25:36;102506.44;;;6.52;100.00
14767;BME280;7475;53.558;9.970;2022-11-30T08:28:02;102508.16;;;6.55;100.00
14767;BME280;7475;53.558;9.970;2022-11-30T08:30:28;102507.25;;;6.56;100.00
14767;BME280;7475;53.558;9.970;2022-11-30T08:32:53;102515.13;;;6.57;100.00
14767;BME280;7475;53.558;9.970;2022-11-30T08:35:19;102522.16;;;6.59;100.00
14767;BME280;7475;53.558;9.970;2022-11-30T08:37:44;102523.88;;;6.60;100.00
14767;BME280;7475;53.558;9.970;2022-11-30T08:40:10;102522.13;;;6.60;100.00
14767;BME280;7475;53.558;9.970;2022-11-30T08:42:35;102525.66;;;6.59;100.00
14767;BME280;7475;53.558;9.970;2022-11-30T08:45:00;102528.31;;;6.59;100.00
14767;BME280;7475;53.558;9.970;2022-11-30T08:47:27;102533.66;;;6.56;100.00
14767;BME280;7475;53.558;9.970;2022-11-30T08:49:54;102531.06;;;6.53;100.00
14767;BME280;7475;53.558;9.970;2022-11-30T08:52:19;102536.38;;;6.51;100.00
14767;BME280;7475;53.558;9.970;2022-11-30T08:54:45;102538.97;;;6.53;100.00
14767;BME280;7475;53.558;9.970;2022-11-30T08:57:11;102542.50;;;6.55;100.00
14767;BME280;7475;53.558;9.970;2022-11-30T08:59:37;102546.00;;;6.55;100.00
14767;BME280;7475;53.558;9.970;2022-11-30T09:02:02;102547.81;;;6.52;100.00
14767;BME280;7475;53.558;9.970;2022-11-30T09:04:28;102548.75;;;6.49;100.00
14767;BME280;7475;53.558;9.970;2022-11-30T09:06:53;102546.97;;;6.50;100.00
14767;BME280;7475;53.558;9.970;2022-11-30T09:09:23;102547.81;;;6.52;100.00
14767;BME280;7475;53.558;9.970;2022-11-30T09:11:49;102553.94;;;6.54;100.00
14767;BME280;7475;53.558;9.970;2022-11-30T09:14:15;102556.56;;;6.54;100.00
14767;BME280;7475;53.558;9.970;2022-11-30T09:16:40;102557.44;;;6.54;100.00
14767;BME280;7475;53.558;9.970;2022-11-30T09:19:05;102558.38;;;6.52;100.00
14767;BME280;7475;53.558;9.970;2022-11-30T09:21:31;102561.03;;;6.52;100.00
14767;BME280;7475;53.558;9.970;2022-11-30T09:23:56;102560.03;;;6.56;100.00
14767;BME280;7475;53.558;9.970;2022-11-30T09:26:21;102567.03;;;6.60;100.00
14767;BME280;7475;53.558;9.970;2022-11-30T09:28:49;102562.63;;;6.59;100.00
14767;BME280;7475;53.558;9.970;2022-11-30T09:31:17;102554.72;;;6.59;100.00
14767;BME280;7475;53.558;9.970;2022-11-30T09:33:43;102566.09;;;6.61;100.00
14767;BME280;7475;53.558;9.970;2022-11-30T09:36:11;102560.75;;;6.64;100.00
14767;BME280;7475;53.558;9.970;2022-11-30T09:38:38;102559.88;;;6.65;100.00
14767;BME280;7475;53.558;9.970;2022-11-30T09:44:02;102565.97;;;6.69;100.00
14767;BME280;7475;53.558;9.970;2022-11-30T09:46:38;102568.63;;;6.67;100.00
14767;BME280;7475;53.558;9.970;2022-11-30T09:49:13;102564.28;;;6.66;100.00
14767;BME280;7475;53.558;9.970;2022-11-30T09:51:49;102565.16;;;6.65;100.00
14767;BME280;7475;53.558;9.970;2022-11-30T09:54:20;102563.47;;;6.61;100.00
14767;BME280;7475;53.558;9.970;2022-11-30T09:56:46;102571.41;;;6.60;100.00
14767;BME280;7475;53.558;9.970;2022-11-30T09:59:19;102569.72;;;6.57;100.00
14767;BME280;7475;53.558;9.970;2022-11-30T10:01:46;102563.47;;;6.61;100.00
14767;BME280;7475;53.558;9.970;2022-11-30T10:04:23;102567.84;;;6.62;100.00
14767;BME280;7475;53.558;9.970;2022-11-30T10:07:04;102569.66;;;6.60;100.00
14767;BME280;7475;53.558;9.970;2022-11-30T10:12:28;102561.69;;;6.63;100.00
14767;BME280;7475;53.558;9.970;2022-11-30T10:15:39;102558.19;;;6.61;100.00
14767;BME280;7475;53.558;9.970;2022-11-30T10:20:57;102561.72;;;6.62;100.00
14767;BME280;7475;53.558;9.970;2022-11-30T10:23:47;102562.47;;;6.68;100.00
14767;BME280;7475;53.558;9.970;2022-11-30T10:26:25;102559.72;;;6.74;100.00
14767;BME280;7475;53.558;9.970;2022-11-30T10:29:00;102558.72;;;6.79;100.00
14767;BME280;7475;53.558;9.970;2022-11-30T10:31:33;102562.16;;;6.84;100.00
14767;BME280;7475;53.558;9.970;2022-11-30T10:34:11;102562.94;;;6.89;100.00
14767;BME280;7475;53.558;9.970;2022-11-30T10:36:43;102559.28;;;6.95;100.00
14767;BME280;7475;53.558;9.970;2022-11-30T10:39:19;102557.53;;;6.95;100.00
14767;BME280;7475;53.558;9.970;2022-11-30T10:41:50;102562.00;;;6.91;100.00
14767;BME280;7475;53.558;9.970;2022-11-30T10:44:26;102553.22;;;6.89;100.00
14767;BME280;7475;53.558;9.970;2022-11-30T10:46:58;102550.59;;;6.89;100.00
14767;BME280;7475;53.558;9.970;2022-11-30T10:49:27;102548.88;;;6.87;100.00
14767;BME280;7475;53.558;9.970;2022-11-30T10:51:57;102547.09;;;6.89;100.00
14767;BME280;7475;53.558;9.970;2022-11-30T10:54:25;102546.25;;;6.85;100.00
14767;BME280;7475;53.558;9.970;2022-11-30T10:56:50;102549.03;;;6.81;100.00
14767;BME280;7475;53.558;9.970;2022-11-30T10:59:17;102542.81;;;6.82;100.00
14767;BME280;7475;53.558;9.970;2022-11-30T11:01:44;102546.34;;;6.82;100.00
14767;BME280;7475;53.558;9.970;2022-11-30T11:06:46;102548.00;;;6.86;100.00
14767;BME280;7475;53.558;9.970;2022-11-30T11:09:35;102547.16;;;6.86;100.00
14767;BME280;7475;53.558;9.970;2022-11-30T11:12:14;102548.88;;;6.87;100.00
14767;BME280;7475;53.558;9.970;2022-11-30T11:14:40;102551.47;;;6.88;100.00
14767;BME280;7475;53.558;9.970;2022-11-30T11:19:45;102543.47;;;6.93;100.00
14767;BME280;7475;53.558;9.970;2022-11-30T11:22:25;102548.75;;;6.93;100.00
14767;BME280;7475;53.558;9.970;2022-11-30T11:27:50;102548.63;;;6.99;100.00
14767;BME280;7475;53.558;9.970;2022-11-30T11:35:38;102550.44;;;6.97;100.00
14767;BME280;7475;53.558;9.970;2022-11-30T11:40:53;102557.38;;;7.01;100.00
14767;BME280;7475;53.558;9.970;2022-11-30T11:43:22;102555.59;;;7.03;100.00
14767;BME280;7475;53.558;9.970;2022-11-30T11:45:53;102555.56;;;7.05;100.00
14767;BME280;7475;53.558;9.970;2022-11-30T11:48:29;102552.94;;;7.05;100.00
14767;BME280;7475;53.558;9.970;2022-11-30T11:51:03;102559.06;;;7.05;100.00
14767;BME280;7475;53.558;9.970;2022-11-30T11:56:25;102559.88;;;7.09;100.00
14767;BME280;7475;53.558;9.970;2022-11-30T12:01:53;102566.09;;;7.06;100.00
14767;BME280;7475;53.558;9.970;2022-11-30T12:07:33;102560.03;;;7.01;100.00
14767;BME280;7475;53.558;9.970;2022-11-30T12:12:38;102559.19;;;6.99;100.00
14767;BME280;7475;53.558;9.970;2022-11-30T12:15:08;102562.72;;;6.98;100.00
14767;BME280;7475;53.558;9.970;2022-11-30T12:18:08;102557.44;;;6.98;100.00
14767;BME280;7475;53.558;9.970;2022-11-30T12:20:59;102560.94;;;7.00;100.00
14767;BME280;7475;53.558;9.970;2022-11-30T12:31:54;102573.38;;;6.95;100.00
14767;BME280;7475;53.558;9.970;2022-11-30T12:34:33;102568.09;;;6.95;100.00
14767;BME280;7475;53.558;9.970;2022-11-30T12:42:20;102576.09;;;6.92;100.00
14767;BME280;7475;53.558;9.970;2022-11-30T12:50:29;102582.25;;;6.91;100.00
14767;BME280;7475;53.558;9.970;2022-11-30T12:55:38;102573.56;;;6.86;100.00
14767;BME280;7475;53.558;9.970;2022-11-30T12:58:38;102582.38;;;6.85;100.00
14767;BME280;7475;53.558;9.970;2022-11-30T13:03:54;102584.38;;;6.73;100.00
14767;BME280;7475;53.558;9.970;2022-11-30T13:06:29;102580.03;;;6.71;100.00
14767;BME280;7475;53.558;9.970;2022-11-30T13:09:04;102582.66;;;6.71;100.00
14767;BME280;7475;53.558;9.970;2022-11-30T13:11:36;102587.06;;;6.70;100.00
14767;BME280;7475;53.558;9.970;2022-11-30T13:14:13;102589.69;;;6.70;100.00
14767;BME280;7475;53.558;9.970;2022-11-30T13:16:41;102588.84;;;6.70;100.00
14767;BME280;7475;53.558;9.970;2022-11-30T13:22:02;102596.72;;;6.71;100.00
14767;BME280;7475;53.558;9.970;2022-11-30T13:24:40;102585.31;;;6.71;100.00
14767;BME280;7475;53.558;9.970;2022-11-30T13:27:14;102594.97;;;6.70;100.00
14767;BME280;7475;53.558;9.970;2022-11-30T13:32:23;102595.03;;;6.67;100.00
14767;BME280;7475;53.558;9.970;2022-11-30T13:34:49;102594.22;;;6.64;100.00
14767;BME280;7475;53.558;9.970;2022-11-30T13:37:19;102594.28;;;6.61;100.00
14767;BME280;7475;53.558;9.970;2022-11-30T13:39:49;102591.69;;;6.57;100.00
14767;BME280;7475;53.558;9.970;2022-11-30T13:42:29;102596.09;;;6.59;100.00
14767;BME280;7475;53.558;9.970;2022-11-30T13:44:57;102595.16;;;6.61;100.00
14767;BME280;7475;53.558;9.970;2022-11-30T13:47:31;102601.28;;;6.63;100.00
14767;BME280;7475;53.558;9.970;2022-11-30T13:53:23;102596.91;;;6.62;100.00
14767;BME280;7475;53.558;9.970;2022-11-30T13:55:58;102591.69;;;6.59;100.00
14767;BME280;7475;53.558;9.970;2022-11-30T13:58:25;102589.94;;;6.58;100.00
14767;BME280;7475;53.558;9.970;2022-11-30T14:01:20;102594.25;;;6.62;100.00
14767;BME280;7475;53.558;9.970;2022-11-30T14:14:55;102603.22;;;6.55;100.00
14767;BME280;7475;53.558;9.970;2022-11-30T14:17:24;102619.03;;;6.55;100.00
14767;BME280;7475;53.558;9.970;2022-11-30T14:19:53;102616.34;;;6.58;100.00
14767;BME280;7475;53.558;9.970;2022-11-30T14:22:21;102607.50;;;6.59;100.00
14767;BME280;7475;53.558;9.970;2022-11-30T14:24:48;102614.50;;;6.63;100.00
14767;BME280;7475;53.558;9.970;2022-11-30T14:27:17;102621.50;;;6.64;100.00
14767;BME280;7475;53.558;9.970;2022-11-30T14:29:43;102619.78;;;6.63;100.00
14767;BME280;7475;53.558;9.970;2022-11-30T14:32:22;102622.38;;;6.65;100.00
14767;BME280;7475;53.558;9.970;2022-11-30T14:34:51;102615.34;;;6.64;100.00
14767;BME280;7475;53.558;9.970;2022-11-30T14:37:26;102620.66;;;6.62;100.00
14767;BME280;7475;53.558;9.970;2022-11-30T14:39:53;102623.31;;;6.62;100.00
14767;BME280;7475;53.558;9.970;2022-11-30T14:44:47;102618.91;;;6.61;100.00
14767;BME280;7475;53.558;9.970;2022-11-30T14:49:49;102618.13;;;6.56;100.00
14767;BME280;7475;53.558;9.970;2022-11-30T14:55:11;102614.59;;;6.57;100.00
14767;BME280;7475;53.558;9.970;2022-11-30T15:00:26;102619.81;;;6.60;100.00